sensor_id;sensor_type;location;lat;lon;timestamp;pressure;altitude;pressure_sealevel;temperature;humidity
43420;BME280;29017;51.514;-0.178;2022-08-03T00:01:36;100952.13;;;22.21;79.66
43420;BME280;29017;51.514;-0.178;2022-08-03T00:04:04;100952.13;;;22.21;80.54
43420;BME280;29017;51.514;-0.178;2022-08-03T00:06:32;100948.88;;;22.19;79.98
43420;BME280;29017;51.514;-0.178;2022-08-03T00:09:05;100948.94;;;22.12;80.00
43420;BME280;29017;51.514;-0.178;2022-08-03T00:11:33;100946.72;;;22.09;79.82
43420;BME280;29017;51.514;-0.178;2022-08-03T00:14:01;100942.84;;;22.05;80.19
43420;BME280;29017;51.514;-0.178;2022-08-03T00:16:28;100944.94;;;22.03;80.53
43420;BME280;29017;51.514;-0.178;2022-08-03T00:18:56;100943.91;;;22.04;80.63
43420;BME280;29017;51.514;-0.178;2022-08-03T00:21:26;100938.56;;;22.04;80.81
43420;BME280;29017;51.514;-0.178;2022-08-03T00:23:53;100942.84;;;22.05;80.41
43420;BME280;29017;51.514;-0.178;2022-08-03T00:26:21;100946.59;;;22.04;80.47
43420;BME280;29017;51.514;-0.178;2022-08-03T00:28:49;100942.03;;;22.05;80.66
43420;BME280;29017;51.514;-0.178;2022-08-03T00:31:16;100935.47;;;22.01;80.38
43420;BME280;29017;51.514;-0.178;2022-08-03T00:34:03;100941.06;;;21.99;80.56
43420;BME280;29017;51.514;-0.178;2022-08-03T00:36:32;100943.72;;;21.99;80.84
43420;BME280;29017;51.514;-0.178;2022-08-03T00:38:59;100933.69;;;21.95;80.99
43420;BME280;29017;51.514;-0.178;2022-08-03T00:41:27;100936.81;;;21.92;80.70
43420;BME280;29017;51.514;-0.178;2022-08-03T00:43:54;100926.53;;;21.89;80.89
43420;BME280;29017;51.514;-0.178;2022-08-03T00:46:21;100926.75;;;21.87;81.22
43420;BME280;29017;51.514;-0.178;2022-08-03T00:48:48;100929.88;;;21.84;81.12
43420;BME280;29017;51.514;-0.178;2022-08-03T00:51:17;100930.69;;;21.85;81.69
43420;BME280;29017;51.514;-0.178;2022-08-03T00:53:44;100930.47;;;21.86;82.56
43420;BME280;29017;51.514;-0.178;2022-08-03T00:56:13;100919.75;;;21.86;81.70
43420;BME280;29017;51.514;-0.178;2022-08-03T00:58:43;100929.88;;;21.84;81.59
43420;BME280;29017;51.514;-0.178;2022-08-03T01:01:11;100931.75;;;21.84;81.29
43420;BME280;29017;51.514;-0.178;2022-08-03T01:03:39;100926.97;;;21.86;81.16
43420;BME280;29017;51.514;-0.178;2022-08-03T01:06:15;100926.16;;;21.85;80.88
43420;BME280;29017;51.514;-0.178;2022-08-03T01:14:37;100926.63;;;21.82;81.11
43420;BME280;29017;51.514;-0.178;2022-08-03T01:17:18;100927.50;;;21.76;81.28
43420;BME280;29017;51.514;-0.178;2022-08-03T01:29:03;100936.13;;;21.60;82.53
43420;BME280;29017;51.514;-0.178;2022-08-03T01:31:41;100929.56;;;21.56;81.74
43420;BME280;29017;51.514;-0.178;2022-08-03T01:34:35;100937.53;;;21.44;82.23
43420;BME280;29017;51.514;-0.178;2022-08-03T01:37:07;100940.03;;;21.39;82.66
43420;BME280;29017;51.514;-0.178;2022-08-03T01:39:36;100940.03;;;21.39;82.72
43420;BME280;29017;51.514;-0.178;2022-08-03T01:42:06;100935.28;;;21.41;82.95
43420;BME280;29017;51.514;-0.178;2022-08-03T01:44:37;100939.00;;;21.40;83.15
43420;BME280;29017;51.514;-0.178;2022-08-03T01:47:06;100939.00;;;21.40;83.07
43420;BME280;29017;51.514;-0.178;2022-08-03T01:49:42;100934.47;;;21.41;82.79
43420;BME280;29017;51.514;-0.178;2022-08-03T01:52:11;100938.78;;;21.42;82.90
43420;BME280;29017;51.514;-0.178;2022-08-03T01:54:42;100937.53;;;21.44;82.95
43420;BME280;29017;51.514;-0.178;2022-08-03T01:57:10;100942.88;;;21.44;82.42
43420;BME280;29017;51.514;-0.178;2022-08-03T01:59:39;100940.44;;;21.43;82.65
43420;BME280;29017;51.514;-0.178;2022-08-03T02:02:11;100940.66;;;21.41;82.65
43420;BME280;29017;51.514;-0.178;2022-08-03T02:05:00;100941.69;;;21.40;82.85
43420;BME280;29017;51.514;-0.178;2022-08-03T02:07:29;100938.19;;;21.40;82.45
43420;BME280;29017;51.514;-0.178;2022-08-03T02:10:00;100935.75;;;21.38;82.62
43420;BME280;29017;51.514;-0.178;2022-08-03T02:12:32;100939.06;;;21.33;83.18
43420;BME280;29017;51.514;-0.178;2022-08-03T02:15:05;100939.31;;;21.32;82.66
43420;BME280;29017;51.514;-0.178;2022-08-03T02:17:37;100941.16;;;21.31;83.06
43420;BME280;29017;51.514;-0.178;2022-08-03T02:20:07;100940.72;;;21.34;83.21
43420;BME280;29017;51.514;-0.178;2022-08-03T02:22:41;100933.50;;;21.35;83.10
43420;BME280;29017;51.514;-0.178;2022-08-03T02:25:10;100933.72;;;21.33;83.26
43420;BME280;29017;51.514;-0.178;2022-08-03T02:27:42;100929.63;;;21.31;82.70
43420;BME280;29017;51.514;-0.178;2022-08-03T02:30:10;100931.69;;;21.29;83.11
43420;BME280;29017;51.514;-0.178;2022-08-03T02:32:40;100927.63;;;21.26;83.06
43420;BME280;29017;51.514;-0.178;2022-08-03T02:35:14;100926.78;;;21.26;83.20
43420;BME280;29017;51.514;-0.178;2022-08-03T02:37:46;100929.25;;;21.27;83.56
43420;BME280;29017;51.514;-0.178;2022-08-03T02:40:17;100925.75;;;21.27;83.52
43420;BME280;29017;51.514;-0.178;2022-08-03T02:42:46;100925.75;;;21.27;83.19
43420;BME280;29017;51.514;-0.178;2022-08-03T02:45:17;100930.09;;;21.28;83.32
43420;BME280;29017;51.514;-0.178;2022-08-03T02:47:46;100929.84;;;21.29;83.24
43420;BME280;29017;51.514;-0.178;2022-08-03T02:50:21;100939.31;;;21.32;83.07
43420;BME280;29017;51.514;-0.178;2022-08-03T02:52:50;100929.03;;;21.29;82.99
43420;BME280;29017;51.514;-0.178;2022-08-03T02:55:19;100924.28;;;21.31;82.69
43420;BME280;29017;51.514;-0.178;2022-08-03T02:57:49;100924.44;;;21.36;83.75
43420;BME280;29017;51.514;-0.178;2022-08-03T03:00:17;100918.25;;;21.36;82.62
43420;BME280;29017;51.514;-0.178;2022-08-03T03:02:56;100910.84;;;21.38;82.85
43420;BME280;29017;51.514;-0.178;2022-08-03T03:05:25;100914.09;;;21.40;82.44
43420;BME280;29017;51.514;-0.178;2022-08-03T03:08:20;100913.06;;;21.41;82.49
43420;BME280;29017;51.514;-0.178;2022-08-03T03:10:57;100903.38;;;21.40;82.37
43420;BME280;29017;51.514;-0.178;2022-08-03T03:13:27;100897.59;;;21.43;83.03
43420;BME280;29017;51.514;-0.178;2022-08-03T03:15:57;100903.78;;;21.43;83.42
43420;BME280;29017;51.514;-0.178;2022-08-03T03:18:33;100893.06;;;21.43;82.60
43420;BME280;29017;51.514;-0.178;2022-08-03T03:21:01;100898.63;;;21.42;82.60
43420;BME280;29017;51.514;-0.178;2022-08-03T03:23:30;100886.28;;;21.41;82.76
43420;BME280;29017;51.514;-0.178;2022-08-03T03:25:59;100889.16;;;21.39;82.44
43420;BME280;29017;51.514;-0.178;2022-08-03T03:28:28;100889.16;;;21.39;82.46
43420;BME280;29017;51.514;-0.178;2022-08-03T03:30:57;100880.09;;;21.40;82.22
43420;BME280;29017;51.514;-0.178;2022-08-03T03:33:24;100876.38;;;21.41;82.94
43420;BME280;29017;51.514;-0.178;2022-08-03T03:35:54;100886.06;;;21.42;82.45
43420;BME280;29017;51.514;-0.178;2022-08-03T03:38:21;100890.38;;;21.43;82.50
43420;BME280;29017;51.514;-0.178;2022-08-03T03:40:48;100882.34;;;21.43;82.32
43420;BME280;29017;51.514;-0.178;2022-08-03T03:43:16;100892.91;;;21.38;82.41
43420;BME280;29017;51.514;-0.178;2022-08-03T03:45:44;100887.97;;;21.35;82.27
43420;BME280;29017;51.514;-0.178;2022-08-03T03:48:13;100905.53;;;21.31;82.89
43420;BME280;29017;51.514;-0.178;2022-08-03T03:50:40;100901.22;;;21.30;82.84
43420;BME280;29017;51.514;-0.178;2022-08-03T03:53:10;100892.75;;;21.33;83.19
43420;BME280;29017;51.514;-0.178;2022-08-03T03:55:38;100894.53;;;21.39;83.06
43420;BME280;29017;51.514;-0.178;2022-08-03T03:58:25;100899.88;;;21.39;82.31
43420;BME280;29017;51.514;-0.178;2022-08-03T04:00:52;100897.66;;;21.36;82.51
43420;BME280;29017;51.514;-0.178;2022-08-03T04:03:19;100903.47;;;21.33;82.82
43420;BME280;29017;51.514;-0.178;2022-08-03T04:05:47;100902.50;;;21.27;82.71
43420;BME280;29017;51.514;-0.178;2022-08-03T04:08:32;100902.50;;;21.27;83.08
43420;BME280;29017;51.514;-0.178;2022-08-03T04:11:54;100897.50;;;21.31;83.11
43420;BME280;29017;51.514;-0.178;2022-08-03T04:14:33;100900.19;;;21.31;83.44
43420;BME280;29017;51.514;-0.178;2022-08-03T04:17:04;100898.53;;;21.30;82.88
43420;BME280;29017;51.514;-0.178;2022-08-03T04:19:43;100908.00;;;21.32;82.96
43420;BME280;29017;51.514;-0.178;2022-08-03T04:22:12;100910.44;;;21.34;83.02
43420;BME280;29017;51.514;-0.178;2022-08-03T04:24:47;100914.34;;;21.38;83.10
43420;BME280;29017;51.514;-0.178;2022-08-03T04:27:17;100907.69;;;21.41;82.94
43420;BME280;29017;51.514;-0.178;2022-08-03T04:29:48;100915.88;;;21.46;83.37
43420;BME280;29017;51.514;-0.178;2022-08-03T04:32:18;100917.88;;;21.50;82.96
43420;BME280;29017;51.514;-0.178;2022-08-03T04:34:46;100925.09;;;21.50;82.32
43420;BME280;29017;51.514;-0.178;2022-08-03T04:37:34;100929.22;;;21.52;82.14
43420;BME280;29017;51.514;-0.178;2022-08-03T04:40:07;100927.34;;;21.53;82.23
43420;BME280;29017;51.514;-0.178;2022-08-03T04:42:36;100928.19;;;21.53;82.26
43420;BME280;29017;51.514;-0.178;2022-08-03T04:45:05;100932.94;;;21.51;82.16
43420;BME280;29017;51.514;-0.178;2022-08-03T04:47:34;100930.72;;;21.48;82.47
43420;BME280;29017;51.514;-0.178;2022-08-03T04:50:03;100936.06;;;21.48;82.63
43420;BME280;29017;51.514;-0.178;2022-08-03T04:52:37;100929.63;;;21.49;82.87
43420;BME280;29017;51.514;-0.178;2022-08-03T04:55:05;100929.22;;;21.52;82.82
43420;BME280;29017;51.514;-0.178;2022-08-03T04:57:32;100935.97;;;21.55;82.56
43420;BME280;29017;51.514;-0.178;2022-08-03T04:59:59;100937.63;;;21.56;82.14
43420;BME280;29017;51.514;-0.178;2022-08-03T05:02:29;100937.81;;;21.54;81.98
43420;BME280;29017;51.514;-0.178;2022-08-03T05:04:58;100932.09;;;21.51;82.46
43420;BME280;29017;51.514;-0.178;2022-08-03T05:07:25;100937.47;;;21.51;82.82
43420;BME280;29017;51.514;-0.178;2022-08-03T05:10:03;100941.78;;;21.52;83.13
43420;BME280;29017;51.514;-0.178;2022-08-03T05:12:44;100949.22;;;21.50;82.26
43420;BME280;29017;51.514;-0.178;2022-08-03T05:15:21;100945.78;;;21.43;82.47
43420;BME280;29017;51.514;-0.178;2022-08-03T05:17:48;100949.13;;;21.38;82.60
43420;BME280;29017;51.514;-0.178;2022-08-03T05:20:15;100948.38;;;21.31;83.20
43420;BME280;29017;51.514;-0.178;2022-08-03T05:22:50;100955.78;;;21.29;84.00
43420;BME280;29017;51.514;-0.178;2022-08-03T05:25:17;100944.03;;;21.30;83.78
43420;BME280;29017;51.514;-0.178;2022-08-03T05:27:49;100945.03;;;21.36;84.11
43420;BME280;29017;51.514;-0.178;2022-08-03T05:30:16;100949.13;;;21.38;84.07
43420;BME280;29017;51.514;-0.178;2022-08-03T05:32:58;100952.41;;;21.40;83.67
43420;BME280;29017;51.514;-0.178;2022-08-03T05:35:25;100946.00;;;21.41;83.64
43420;BME280;29017;51.514;-0.178;2022-08-03T05:38:14;100949.28;;;21.43;83.64
43420;BME280;29017;51.514;-0.178;2022-08-03T05:40:55;100947.00;;;21.47;83.09
43420;BME280;29017;51.514;-0.178;2022-08-03T05:43:43;100948.63;;;21.48;83.26
43420;BME280;29017;51.514;-0.178;2022-08-03T05:46:10;100953.97;;;21.48;83.38
43420;BME280;29017;51.514;-0.178;2022-08-03T05:48:39;100953.81;;;21.43;83.58
43420;BME280;29017;51.514;-0.178;2022-08-03T05:51:06;100945.78;;;21.43;83.30
43420;BME280;29017;51.514;-0.178;2022-08-03T05:53:33;100947.66;;;21.42;83.83
43420;BME280;29017;51.514;-0.178;2022-08-03T05:56:00;100953.59;;;21.44;83.70
43420;BME280;29017;51.514;-0.178;2022-08-03T05:58:45;100948.03;;;21.46;83.51
43420;BME280;29017;51.514;-0.178;2022-08-03T06:01:13;100952.13;;;21.48;83.73
43420;BME280;29017;51.514;-0.178;2022-08-03T06:03:41;100958.06;;;21.50;83.79
43420;BME280;29017;51.514;-0.178;2022-08-03T06:06:08;100955.19;;;21.52;83.87
43420;BME280;29017;51.514;-0.178;2022-08-03T06:08:35;100950.19;;;21.55;83.60
43420;BME280;29017;51.514;-0.178;2022-08-03T06:11:02;100954.50;;;21.56;83.38
43420;BME280;29017;51.514;-0.178;2022-08-03T06:13:29;100956.38;;;21.56;83.45
43420;BME280;29017;51.514;-0.178;2022-08-03T06:15:56;100954.28;;;21.58;83.43
43420;BME280;29017;51.514;-0.178;2022-08-03T06:18:23;100956.97;;;21.58;83.94
43420;BME280;29017;51.514;-0.178;2022-08-03T06:20:51;100962.34;;;21.58;83.49
43420;BME280;29017;51.514;-0.178;2022-08-03T06:23:18;100955.31;;;21.57;84.28
43420;BME280;29017;51.514;-0.178;2022-08-03T06:25:46;100951.38;;;21.59;84.71
43420;BME280;29017;51.514;-0.178;2022-08-03T06:28:13;100954.28;;;21.58;84.75
43420;BME280;29017;51.514;-0.178;2022-08-03T06:31:01;100951.63;;;21.58;84.72
43420;BME280;29017;51.514;-0.178;2022-08-03T06:33:28;100955.47;;;21.62;84.63
43420;BME280;29017;51.514;-0.178;2022-08-03T06:36:15;100954.66;;;21.61;84.37
43420;BME280;29017;51.514;-0.178;2022-08-03T06:38:42;100958.38;;;21.60;84.72
43420;BME280;29017;51.514;-0.178;2022-08-03T06:41:08;100957.34;;;21.61;84.57
43420;BME280;29017;51.514;-0.178;2022-08-03T06:43:35;100960.63;;;21.63;84.37
43420;BME280;29017;51.514;-0.178;2022-08-03T06:46:23;100955.28;;;21.63;84.83
43420;BME280;29017;51.514;-0.178;2022-08-03T06:48:51;100952.34;;;21.65;84.48
43420;BME280;29017;51.514;-0.178;2022-08-03T06:51:18;100957.84;;;21.70;85.43
43420;BME280;29017;51.514;-0.178;2022-08-03T06:53:45;100957.66;;;21.71;85.35
43420;BME280;29017;51.514;-0.178;2022-08-03T06:56:12;100956.16;;;21.75;85.05
43420;BME280;29017;51.514;-0.178;2022-08-03T06:58:39;100946.88;;;21.78;84.39
43420;BME280;29017;51.514;-0.178;2022-08-03T07:01:06;100952.22;;;21.78;83.92
43420;BME280;29017;51.514;-0.178;2022-08-03T07:03:33;100948.13;;;21.75;84.51
43420;BME280;29017;51.514;-0.178;2022-08-03T07:06:00;100955.31;;;21.75;84.23
43420;BME280;29017;51.514;-0.178;2022-08-03T07:08:28;100946.03;;;21.77;84.07
43420;BME280;29017;51.514;-0.178;2022-08-03T07:10:59;100955.72;;;21.79;83.90
43420;BME280;29017;51.514;-0.178;2022-08-03T07:13:26;100956.91;;;21.83;84.74
43420;BME280;29017;51.514;-0.178;2022-08-03T07:15:53;100962.63;;;21.86;83.95
43420;BME280;29017;51.514;-0.178;2022-08-03T07:18:22;100965.66;;;21.90;83.52
43420;BME280;29017;51.514;-0.178;2022-08-03T07:20:55;100962.41;;;21.88;83.24
43420;BME280;29017;51.514;-0.178;2022-08-03T07:23:22;100966.50;;;21.90;83.70
43420;BME280;29017;51.514;-0.178;2022-08-03T07:25:49;100960.72;;;21.93;83.64
43420;BME280;29017;51.514;-0.178;2022-08-03T07:28:16;100966.47;;;21.97;83.47
43420;BME280;29017;51.514;-0.178;2022-08-03T07:30:43;100969.28;;;22.02;83.47
43420;BME280;29017;51.514;-0.178;2022-08-03T07:33:10;100964.97;;;22.01;83.16
43420;BME280;29017;51.514;-0.178;2022-08-03T07:35:37;100972.78;;;22.02;83.21
43420;BME280;29017;51.514;-0.178;2022-08-03T07:38:04;100969.66;;;22.05;83.43
43420;BME280;29017;51.514;-0.178;2022-08-03T07:40:31;100970.84;;;22.09;83.53
43420;BME280;29017;51.514;-0.178;2022-08-03T07:42:58;100965.25;;;22.11;83.19
43420;BME280;29017;51.514;-0.178;2022-08-03T07:45:25;100965.63;;;22.14;82.69
43420;BME280;29017;51.514;-0.178;2022-08-03T07:47:53;100967.25;;;22.15;82.67
43420;BME280;29017;51.514;-0.178;2022-08-03T07:50:20;100962.50;;;22.17;82.59
43420;BME280;29017;51.514;-0.178;2022-08-03T07:52:51;100968.59;;;22.25;83.65
43420;BME280;29017;51.514;-0.178;2022-08-03T07:55:21;100968.13;;;22.28;83.02
43420;BME280;29017;51.514;-0.178;2022-08-03T07:58:18;100970.59;;;22.29;82.57
43420;BME280;29017;51.514;-0.178;2022-08-03T08:00:50;100971.19;;;22.31;81.87
43420;BME280;29017;51.514;-0.178;2022-08-03T08:03:18;100969.91;;;22.34;81.90
43420;BME280;29017;51.514;-0.178;2022-08-03T08:05:48;100972.13;;;22.37;82.23
43420;BME280;29017;51.514;-0.178;2022-08-03T08:08:14;100971.47;;;22.41;82.76
43420;BME280;29017;51.514;-0.178;2022-08-03T08:10:41;100973.69;;;22.44;82.20
43420;BME280;29017;51.514;-0.178;2022-08-03T08:13:24;100975.09;;;22.47;81.62
43420;BME280;29017;51.514;-0.178;2022-08-03T08:15:50;100972.19;;;22.48;81.17
43420;BME280;29017;51.514;-0.178;2022-08-03T08:18:17;100971.59;;;22.46;81.32
43420;BME280;29017;51.514;-0.178;2022-08-03T08:20:44;100965.41;;;22.46;81.24
43420;BME280;29017;51.514;-0.178;2022-08-03T08:23:11;100965.53;;;22.51;81.83
43420;BME280;29017;51.514;-0.178;2022-08-03T08:25:58;100973.38;;;22.52;81.76
43420;BME280;29017;51.514;-0.178;2022-08-03T08:28:25;100966.75;;;22.55;80.88
43420;BME280;29017;51.514;-0.178;2022-08-03T08:30:59;100958.44;;;22.56;81.37
43420;BME280;29017;51.514;-0.178;2022-08-03T08:33:25;100961.75;;;22.58;80.87
43420;BME280;29017;51.514;-0.178;2022-08-03T08:36:12;100962.91;;;22.63;81.35
43420;BME280;29017;51.514;-0.178;2022-08-03T08:38:41;100953.59;;;22.65;81.35
43420;BME280;29017;51.514;-0.178;2022-08-03T08:41:10;100956.84;;;22.67;80.90
43420;BME280;29017;51.514;-0.178;2022-08-03T08:43:38;100963.03;;;22.68;80.88
43420;BME280;29017;51.514;-0.178;2022-08-03T08:46:06;100958.72;;;22.67;80.87
43420;BME280;29017;51.514;-0.178;2022-08-03T08:48:36;100963.88;;;22.68;81.56
43420;BME280;29017;51.514;-0.178;2022-08-03T08:51:07;100958.88;;;22.72;80.94
43420;BME280;29017;51.514;-0.178;2022-08-03T08:53:36;100962.97;;;22.74;80.77
43420;BME280;29017;51.514;-0.178;2022-08-03T08:56:04;100961.47;;;22.78;80.72
43420;BME280;29017;51.514;-0.178;2022-08-03T08:58:36;100957.28;;;22.82;80.55
43420;BME280;29017;51.514;-0.178;2022-08-03T09:01:04;100960.19;;;22.81;80.90
43420;BME280;29017;51.514;-0.178;2022-08-03T09:03:32;100967.19;;;22.82;80.61
43420;BME280;29017;51.514;-0.178;2022-08-03T09:06:00;100963.25;;;22.84;80.34
43420;BME280;29017;51.514;-0.178;2022-08-03T09:08:29;100968.34;;;22.86;80.26
43420;BME280;29017;51.514;-0.178;2022-08-03T09:10:56;100959.03;;;22.88;80.13
43420;BME280;29017;51.514;-0.178;2022-08-03T09:13:23;100956.97;;;22.90;79.90
43420;BME280;29017;51.514;-0.178;2022-08-03T09:16:10;100965.50;;;22.99;80.67
43420;BME280;29017;51.514;-0.178;2022-08-03T09:18:38;100962.59;;;23.00;79.94
43420;BME280;29017;51.514;-0.178;2022-08-03T09:21:17;100964.91;;;23.09;79.64
43420;BME280;29017;51.514;-0.178;2022-08-03T09:23:58;100958.38;;;23.16;79.46
43420;BME280;29017;51.514;-0.178;2022-08-03T09:26:30;100963.84;;;23.21;79.11
43420;BME280;29017;51.514;-0.178;2022-08-03T09:31:41;100959.44;;;23.27;79.26
43420;BME280;29017;51.514;-0.178;2022-08-03T09:34:12;100952.78;;;23.29;78.86
43420;BME280;29017;51.514;-0.178;2022-08-03T09:36:49;100963.31;;;23.31;78.58
43420;BME280;29017;51.514;-0.178;2022-08-03T09:39:24;100954.44;;;23.30;78.35
43420;BME280;29017;51.514;-0.178;2022-08-03T09:42:08;100952.31;;;23.32;78.55
43420;BME280;29017;51.514;-0.178;2022-08-03T09:44:37;100956.06;;;23.31;78.50
43420;BME280;29017;51.514;-0.178;2022-08-03T09:47:04;100947.75;;;23.33;78.92
43420;BME280;29017;51.514;-0.178;2022-08-03T09:49:31;100948.56;;;23.33;78.96
43420;BME280;29017;51.514;-0.178;2022-08-03T09:52:12;100947.53;;;23.34;78.60
43420;BME280;29017;51.514;-0.178;2022-08-03T09:55:02;100957.22;;;23.35;78.80
43420;BME280;29017;51.514;-0.178;2022-08-03T09:58:06;100955.38;;;23.36;78.58
43420;BME280;29017;51.514;-0.178;2022-08-03T10:01:08;100950.34;;;23.39;78.01
43420;BME280;29017;51.514;-0.178;2022-08-03T10:03:57;100949.03;;;23.42;78.16
43420;BME280;29017;51.514;-0.178;2022-08-03T10:06:29;100958.16;;;23.41;78.19
43420;BME280;29017;51.514;-0.178;2022-08-03T10:09:14;100955.47;;;23.41;78.23
43420;BME280;29017;51.514;-0.178;2022-08-03T10:11:42;100956.06;;;23.43;77.84
43420;BME280;29017;51.514;-0.178;2022-08-03T10:14:11;100948.38;;;23.47;78.12
43420;BME280;29017;51.514;-0.178;2022-08-03T10:16:46;100951.41;;;23.50;78.28
43420;BME280;29017;51.514;-0.178;2022-08-03T10:19:13;100946.59;;;23.52;77.93
43420;BME280;29017;51.514;-0.178;2022-08-03T10:21:47;100942.06;;;23.53;78.26
43420;BME280;29017;51.514;-0.178;2022-08-03T10:24:17;100934.59;;;23.55;77.80
43420;BME280;29017;51.514;-0.178;2022-08-03T10:26:47;100938.44;;;23.59;77.64
43420;BME280;29017;51.514;-0.178;2022-08-03T10:29:23;100938.53;;;23.64;77.96
43420;BME280;29017;51.514;-0.178;2022-08-03T10:31:53;100942.38;;;23.68;77.47
43420;BME280;29017;51.514;-0.178;2022-08-03T10:34:26;100941.09;;;23.70;77.55
43420;BME280;29017;51.514;-0.178;2022-08-03T10:36:57;100940.16;;;23.76;77.32
43420;BME280;29017;51.514;-0.178;2022-08-03T10:39:28;100938.16;;;23.83;77.68
43420;BME280;29017;51.514;-0.178;2022-08-03T10:41:57;100934.28;;;23.91;77.04
43420;BME280;29017;51.514;-0.178;2022-08-03T10:44:32;100934.41;;;23.96;76.36
43420;BME280;29017;51.514;-0.178;2022-08-03T10:47:03;100934.50;;;24.01;76.49
43420;BME280;29017;51.514;-0.178;2022-08-03T10:49:30;100940.44;;;24.03;76.42
43420;BME280;29017;51.514;-0.178;2022-08-03T10:52:02;100929.22;;;24.06;76.48
43420;BME280;29017;51.514;-0.178;2022-08-03T10:54:50;100930.59;;;24.09;76.13
43420;BME280;29017;51.514;-0.178;2022-08-03T10:57:53;100936.06;;;24.14;76.24
43420;BME280;29017;51.514;-0.178;2022-08-03T11:00:26;100931.88;;;24.18;75.59
43420;BME280;29017;51.514;-0.178;2022-08-03T11:05:34;100930.47;;;24.27;75.85
43420;BME280;29017;51.514;-0.178;2022-08-03T11:08:31;100922.22;;;24.34;76.00
43420;BME280;29017;51.514;-0.178;2022-08-03T11:14:05;100920.53;;;24.44;75.12
43420;BME280;29017;51.514;-0.178;2022-08-03T11:16:35;100916.28;;;24.48;74.75
43420;BME280;29017;51.514;-0.178;2022-08-03T11:19:05;100924.47;;;24.53;74.83
43420;BME280;29017;51.514;-0.178;2022-08-03T11:32:56;100923.94;;;24.68;74.09
43420;BME280;29017;51.514;-0.178;2022-08-03T11:35:30;100929.41;;;24.73;74.09
43420;BME280;29017;51.514;-0.178;2022-08-03T11:38:00;100930.22;;;24.74;73.63
43420;BME280;29017;51.514;-0.178;2022-08-03T11:40:46;100922.38;;;24.72;73.29
43420;BME280;29017;51.514;-0.178;2022-08-03T11:46:08;100925.81;;;24.67;73.20
43420;BME280;29017;51.514;-0.178;2022-08-03T11:49:02;100926.03;;;24.66;73.79
43420;BME280;29017;51.514;-0.178;2022-08-03T11:51:36;100926.28;;;24.64;73.92
43420;BME280;29017;51.514;-0.178;2022-08-03T11:54:05;100926.03;;;24.66;74.21
43420;BME280;29017;51.514;-0.178;2022-08-03T11:56:46;100917.47;;;24.69;73.84
43420;BME280;29017;51.514;-0.178;2022-08-03T11:59:14;100923.75;;;24.75;73.32
43420;BME280;29017;51.514;-0.178;2022-08-03T12:01:48;100914.94;;;24.79;73.43
43420;BME280;29017;51.514;-0.178;2022-08-03T12:04:15;100922.03;;;24.85;73.28
43420;BME280;29017;51.514;-0.178;2022-08-03T12:06:57;100923.22;;;24.89;73.08
43420;BME280;29017;51.514;-0.178;2022-08-03T12:09:24;100925.44;;;24.92;72.32
43420;BME280;29017;51.514;-0.178;2022-08-03T12:11:51;100917.69;;;24.96;72.58
43420;BME280;29017;51.514;-0.178;2022-08-03T12:14:26;100923.38;;;24.99;71.90
43420;BME280;29017;51.514;-0.178;2022-08-03T12:17:14;100937.19;;;25.03;72.35
43420;BME280;29017;51.514;-0.178;2022-08-03T12:19:42;100931.31;;;25.06;72.53
43420;BME280;29017;51.514;-0.178;2022-08-03T12:22:09;100917.34;;;25.09;71.98
43420;BME280;29017;51.514;-0.178;2022-08-03T12:24:40;100916.03;;;25.11;72.30
43420;BME280;29017;51.514;-0.178;2022-08-03T12:27:08;100926.06;;;25.16;71.60
43420;BME280;29017;51.514;-0.178;2022-08-03T12:29:35;100923.97;;;25.18;71.14
43420;BME280;29017;51.514;-0.178;2022-08-03T12:32:03;100924.84;;;25.24;71.60
43420;BME280;29017;51.514;-0.178;2022-08-03T12:34:48;100922.22;;;25.29;71.33
43420;BME280;29017;51.514;-0.178;2022-08-03T12:37:22;100924.72;;;25.35;71.30
43420;BME280;29017;51.514;-0.178;2022-08-03T12:39:50;100914.84;;;25.41;71.35
43420;BME280;29017;51.514;-0.178;2022-08-03T12:42:36;100916.38;;;25.53;70.49
43420;BME280;29017;51.514;-0.178;2022-08-03T12:45:23;100923.81;;;25.63;69.98
43420;BME280;29017;51.514;-0.178;2022-08-03T12:47:59;100920.66;;;25.71;69.48
43420;BME280;29017;51.514;-0.178;2022-08-03T12:50:32;100919.44;;;25.79;69.33
43420;BME280;29017;51.514;-0.178;2022-08-03T12:53:04;100924.38;;;25.87;69.26
43420;BME280;29017;51.514;-0.178;2022-08-03T12:55:36;100925.81;;;25.94;68.78
43420;BME280;29017;51.514;-0.178;2022-08-03T12:58:32;100920.53;;;26.05;68.09
43420;BME280;29017;51.514;-0.178;2022-08-03T13:01:02;100913.88;;;26.12;67.64
43420;BME280;29017;51.514;-0.178;2022-08-03T13:03:43;100910.09;;;26.13;67.74
43420;BME280;29017;51.514;-0.178;2022-08-03T13:06:20;100919.59;;;26.16;67.81
43420;BME280;29017;51.514;-0.178;2022-08-03T13:08:48;100916.31;;;26.14;67.64
43420;BME280;29017;51.514;-0.178;2022-08-03T13:11:21;100917.63;;;26.11;67.55
43420;BME280;29017;51.514;-0.178;2022-08-03T13:14:08;100911.94;;;26.08;67.57
43420;BME280;29017;51.514;-0.178;2022-08-03T13:16:45;100914.34;;;26.04;67.66
43420;BME280;29017;51.514;-0.178;2022-08-03T13:19:12;100908.38;;;26.02;67.76
43420;BME280;29017;51.514;-0.178;2022-08-03T13:21:42;100907.81;;;26.00;67.78
43420;BME280;29017;51.514;-0.178;2022-08-03T13:24:29;100912.88;;;25.96;67.86
43420;BME280;29017;51.514;-0.178;2022-08-03T13:26:57;100908.88;;;25.99;68.19
43420;BME280;29017;51.514;-0.178;2022-08-03T13:29:24;100907.88;;;26.05;67.75
43420;BME280;29017;51.514;-0.178;2022-08-03T13:31:51;100915.22;;;26.10;67.29
43420;BME280;29017;51.514;-0.178;2022-08-03T13:34:19;100902.53;;;26.10;67.19
43420;BME280;29017;51.514;-0.178;2022-08-03T13:36:54;100904.13;;;26.11;67.91
43420;BME280;29017;51.514;-0.178;2022-08-03T13:39:39;100904.72;;;26.13;67.64
43420;BME280;29017;51.514;-0.178;2022-08-03T13:42:26;100901.81;;;26.20;67.85
43420;BME280;29017;51.514;-0.178;2022-08-03T13:44:53;100893.53;;;26.26;67.88